Catàleg de serveis del Meteocat
Campanya meteocatpedra

Dades de l'estació automàtica els Alamús

?
?
Resum diari 21:30 TU
Dades diàries de l'estació meteorològica
Temperatura mitjana 8.0 °C
Temperatura màxima 13.8 °C 15:35 TU
Temperatura mínima 4.5 °C 3:29 TU
Humitat relativa mitjana 84%
Precipitació acumulada 2.6 mm
Ratxa màxima del vent (2 m) 20.2 km/h - 238º 17:04 TU

El tram horari està expressat en Temps Universal (TU). Cal sumar una hora en horari d'hivern i dues en horari d'estiu per passar a l'hora oficial.

els Alamús

Metadades estació meteorol´gica
Municipi Els Alamús
Comarca Segrià
Altitud 235 m
Data alta 22.06.2011
Estat actual Operativa
Dades de període
Període
TU
TM
°C
TX
°C
TN
°C
HRM
%
PPT
mm
VVM (2 m)
km/h
DVM (2 m)
graus
VVX (2 m)
km/h
00:00 - 00:30 6.9 7.5 6.1 83 0.0 1.1 193 4.0
00:30 - 01:00 6.2 6.5 5.9 86 0.0 1.8 192 3.6
01:00 - 01:30 6.3 6.4 6.2 85 0.0 1.4 206 4.0
01:30 - 02:00 6.0 6.2 5.8 87 0.0 1.1 195 4.3
02:00 - 02:30 5.5 5.8 4.8 90 0.0 0.0 199 1.8
02:30 - 03:00 5.1 5.5 4.8 92 0.0 0.7 256 3.6
03:00 - 03:30 5.0 5.2 4.5 93 0.0 0.4 28 3.6
03:30 - 04:00 5.4 5.6 4.6 93 0.0 0.4 149 2.9
04:00 - 04:30 5.5 5.6 5.4 94 0.0 0.4 344 1.8
04:30 - 05:00 4.9 5.4 4.6 95 0.0 1.8 333 6.1
05:00 - 05:30 4.6 4.8 4.6 95 0.0 1.4 337 4.0
05:30 - 06:00 4.7 4.8 4.7 95 0.1 0.4 331 4.7
06:00 - 06:30 4.9 4.9 4.8 97 0.3 1.4 333 5.0
06:30 - 07:00 5.0 5.2 4.9 97 0.4 2.5 8 7.6
07:00 - 07:30 5.3 5.5 5.2 97 0.5 2.9 47 7.9
07:30 - 08:00 5.7 5.8 5.5 96 0.6 3.2 78 6.5
08:00 - 08:30 6.3 6.6 5.8 97 0.4 2.2 170 5.8
08:30 - 09:00 6.6 6.7 6.5 97 0.2 1.4 281 4.7
09:00 - 09:30 6.5 6.6 6.4 98 0.1 1.8 286 5.8
09:30 - 10:00 6.6 6.8 6.4 97 0.0 1.8 205 5.8
10:00 - 10:30 7.0 7.4 6.8 97 0.0 3.6 238 9.4
10:30 - 11:00 7.5 7.9 7.4 96 0.0 3.6 257 8.6
11:00 - 11:30 8.4 9.0 8.0 94 0.0 5.0 242 10.8
11:30 - 12:00 10.0 10.6 9.2 88 0.0 4.7 241 11.5
12:00 - 12:30 10.0 11.0 9.7 87 0.0 5.0 258 11.5
12:30 - 13:00 10.3 11.2 9.9 83 0.0 4.7 244 12.2
13:00 - 13:30 10.7 11.6 10.2 80 0.0 5.4 237 11.9
13:30 - 14:00 11.7 12.1 10.9 77 0.0 6.5 239 15.5
14:00 - 14:30 12.1 12.4 11.8 75 0.0 5.8 216 11.9
14:30 - 15:00 12.6 13.0 12.1 74 0.0 5.8 233 14.8
15:00 - 15:30 13.0 13.2 12.8 75 0.0 4.0 224 10.4
15:30 - 16:00 13.4 13.8 13.0 74 0.0 1.1 214 7.2
16:00 - 16:30 12.4 13.0 11.6 65 0.0 5.0 244 10.4
16:30 - 17:00 10.8 11.5 9.9 64 0.0 3.6 224 10.1
17:00 - 17:30 11.1 11.4 10.4 63 0.0 8.6 244 20.2
17:30 - 18:00 10.7 11.0 10.2 61 0.0 9.7 239 20.2
18:00 - 18:30 10.0 10.3 9.7 63 0.0 8.3 233 18.0
18:30 - 19:00 9.4 10.1 9.0 66 0.0 4.3 210 13.7
19:00 - 19:30 8.8 9.2 8.4 68 0.0 3.6 206 11.2
19:30 - 20:00 8.1 8.5 7.7 70 0.0 3.2 179 9.4
20:00 - 20:30 7.2 7.7 6.9 75 0.0 2.2 191 8.6
20:30 - 21:00 7.5 7.9 7.2 74 0.0 2.5 201 6.1
21:00 - 21:30 7.6 7.9 7.3 73 0.0 2.5 212 6.8
21:30 - 22:00 6.9 7.3 6.0 77 0.0 1.1 253 4.7
22:00 - 22:30 (s/d) (s/d) (s/d) (s/d) (s/d) (s/d) (s/d) (s/d)

Les dades en taronja només han passat un control de qualitat automàtic. Resta pendent la seva validació definitiva.